Time;durP1;ratioP1;P1;durP2;ratioP2;P2;SDS_P1;SDS_P2;PMS_P1;PMS_P2;Temp;Humidity;BMP_temperature;BMP_pressure;BME280_temperature;BME280_humidity;BME280_pressure;Samples;Min_cycle;Max_cycle;Signal;HPM_P1;HPM_P2
2023/04/19 00:01:32;;;;;;;12.38;10.85;;;15.50;50.00;;;;;;5040040;28;20053;-47
2023/04/19 00:03:59;;;;;;;10.15;9.15;;;15.50;49.90;;;;;;5037351;28;20045;-48
2023/04/19 00:06:29;;;;;;;12.05;10.85;;;15.50;50.10;;;;;;5044150;28;20509;-46
2023/04/19 00:08:58;;;;;;;12.10;10.53;;;15.50;50.10;;;;;;5045857;28;20040;-45
2023/04/19 00:11:27;;;;;;;11.70;10.15;;;15.50;50.10;;;;;;5032427;28;20037;-45
2023/04/19 00:13:58;;;;;;;12.00;10.48;;;15.50;50.20;;;;;;5042315;28;20064;-46
2023/04/19 00:16:26;;;;;;;12.57;11.10;;;15.50;50.30;;;;;;5037416;28;20047;-45
2023/04/19 00:18:53;;;;;;;11.80;10.20;;;15.50;50.40;;;;;;5049347;28;20382;-46
2023/04/19 00:21:20;;;;;;;13.20;10.68;;;15.50;50.50;;;;;;5044842;28;20079;-46
2023/04/19 00:23:49;;;;;;;12.25;10.63;;;15.50;50.50;;;;;;5031885;28;20126;-47
2023/04/19 00:26:18;;;;;;;11.43;10.23;;;15.50;50.50;;;;;;5047849;28;20489;-47
2023/04/19 00:28:50;;;;;;;;;;;15.50;50.50;;;;;;5050537;28;20044;-46
2023/04/19 00:31:19;;;;;;;12.10;9.55;;;15.50;50.10;;;;;;5043401;28;19990;-47
2023/04/19 00:33:46;;;;;;;11.98;10.60;;;15.50;50.20;;;;;;5043422;28;20498;-48
2023/04/19 00:36:12;;;;;;;13.25;10.93;;;15.50;50.40;;;;;;5028147;28;20064;-45
2023/04/19 00:38:39;;;;;;;12.13;10.88;;;15.50;50.50;;;;;;5042790;28;20078;-46
2023/04/19 00:41:06;;;;;;;11.52;10.23;;;15.50;50.70;;;;;;5030005;28;20056;-46
2023/04/19 00:43:35;;;;;;;12.25;10.38;;;15.50;50.70;;;;;;5026479;28;20045;-46
2023/04/19 00:46:01;;;;;;;12.52;10.88;;;15.40;50.80;;;;;;5035984;28;20050;-45
2023/04/19 00:48:29;;;;;;;12.80;11.43;;;15.40;50.80;;;;;;5031687;28;20597;-46
2023/04/19 00:50:56;;;;;;;11.45;10.15;;;15.40;50.90;;;;;;5024619;28;20045;-46
2023/04/19 00:53:25;;;;;;;15.93;10.95;;;15.40;50.90;;;;;;5023133;28;20123;-46
2023/04/19 00:55:53;;;;;;;12.38;10.73;;;15.50;51.10;;;;;;5030543;28;20069;-47
2023/04/19 00:58:20;;;;;;;13.52;11.18;;;15.40;51.10;;;;;;5030659;28;20598;-46
2023/04/19 01:00:49;;;;;;;12.77;10.80;;;15.40;51.10;;;;;;5041508;28;20049;-47
2023/04/19 01:03:19;;;;;;;15.88;11.23;;;15.40;51.20;;;;;;5039811;28;20163;-46
2023/04/19 01:05:48;;;;;;;13.48;11.88;;;15.40;52.00;;;;;;5037430;28;20067;-46
2023/04/19 01:08:15;;;;;;;12.88;10.98;;;15.40;51.50;;;;;;5031345;28;20052;-45
2023/04/19 01:10:42;;;;;;;11.02;9.93;;;15.40;51.40;;;;;;5046579;28;20048;-46
2023/04/19 01:13:08;;;;;;;12.63;11.32;;;15.40;51.50;;;;;;5044316;28;20125;-48
2023/04/19 01:15:37;;;;;;;12.27;11.07;;;15.40;51.70;;;;;;5023784;28;20566;-45
2023/04/19 01:18:04;;;;;;;15.45;11.18;;;15.40;51.80;;;;;;5052325;28;20044;-47
2023/04/19 01:20:31;;;;;;;14.18;11.75;;;15.40;51.80;;;;;;5033450;28;20048;-47
2023/04/19 01:23:00;;;;;;;12.20;10.68;;;15.40;51.90;;;;;;5048564;28;20049;-47
2023/04/19 01:25:26;;;;;;;12.63;11.07;;;15.30;51.90;;;;;;5042314;28;20435;-45
2023/04/19 01:27:53;;;;;;;14.43;12.00;;;15.40;52.00;;;;;;5027104;28;20519;-46
2023/04/19 01:30:22;;;;;;;12.23;10.20;;;15.30;52.10;;;;;;5032701;28;20461;-47
2023/04/19 01:32:49;;;;;;;11.95;10.77;;;15.30;52.10;;;;;;5040952;28;20051;-46
2023/04/19 01:35:16;;;;;;;14.02;11.73;;;15.30;52.30;;;;;;5020617;28;20124;-46
2023/04/19 01:37:43;;;;;;;12.55;11.27;;;15.30;52.40;;;;;;5044507;28;20048;-45
2023/04/19 01:40:10;;;;;;;14.57;11.27;;;15.30;52.40;;;;;;5051571;28;20041;-48
2023/04/19 01:42:36;;;;;;;15.38;11.95;;;15.20;52.40;;;;;;5047395;28;20045;-48
2023/04/19 01:45:06;;;;;;;13.52;10.98;;;15.20;52.50;;;;;;5032806;28;20049;-46
2023/04/19 01:47:35;;;;;;;11.82;10.63;;;15.20;52.90;;;;;;5051908;28;20041;-45
2023/04/19 01:50:04;;;;;;;12.38;11.05;;;15.20;52.70;;;;;;5033213;28;20045;-46
2023/04/19 01:52:31;;;;;;;12.88;11.50;;;15.20;52.80;;;;;;5011178;28;20448;-48
2023/04/19 01:54:59;;;;;;;15.73;11.75;;;15.20;52.90;;;;;;5029372;28;20094;-45
2023/04/19 01:57:25;;;;;;;12.60;10.43;;;15.10;53.00;;;;;;5037302;28;20061;-45
2023/04/19 01:59:56;;;;;;;12.63;11.32;;;15.10;53.10;;;;;;5023555;28;20398;-46
2023/04/19 02:02:23;;;;;;;14.10;12.20;;;15.10;53.20;;;;;;5050487;28;20501;-47
2023/04/19 02:04:49;;;;;;;12.00;10.55;;;15.20;53.20;;;;;;5029500;28;20702;-47
2023/04/19 02:07:16;;;;;;;12.85;11.43;;;15.10;53.20;;;;;;5051358;28;20041;-45
2023/04/19 02:09:43;;;;;;;13.85;11.77;;;15.10;53.30;;;;;;5033196;28;20044;-47
2023/04/19 02:12:11;;;;;;;13.43;12.02;;;15.10;53.30;;;;;;5033092;28;20045;-47
2023/04/19 02:14:37;;;;;;;16.08;12.35;;;15.00;53.40;;;;;;5010377;28;20073;-47
2023/04/19 02:17:04;;;;;;;16.08;12.25;;;15.00;53.50;;;;;;5048676;28;20041;-46
2023/04/19 02:19:31;;;;;;;14.50;11.70;;;14.90;53.60;;;;;;5033828;28;20032;-47
2023/04/19 02:21:58;;;;;;;15.70;12.48;;;14.90;53.70;;;;;;5031712;28;20045;-50
2023/04/19 02:24:24;;;;;;;15.23;11.85;;;14.80;53.90;;;;;;5046629;28;20037;-45
2023/04/19 02:26:53;;;;;;;14.73;12.05;;;14.80;54.10;;;;;;5037859;28;20041;-45
2023/04/19 02:29:21;;;;;;;16.38;12.13;;;14.80;54.30;;;;;;5050904;28;20041;-46
2023/04/19 02:31:48;;;;;;;15.35;12.35;;;14.80;54.40;;;;;;5027354;28;20049;-45
2023/04/19 02:34:18;;;;;;;14.50;12.55;;;14.80;54.60;;;;;;5043339;28;20039;-46
2023/04/19 02:36:44;;;;;;;16.25;12.98;;;14.80;54.70;;;;;;5027242;28;20732;-47
2023/04/19 02:39:11;;;;;;;13.77;12.23;;;14.80;54.90;;;;;;5032540;28;20416;-49
2023/04/19 02:41:38;;;;;;;15.63;13.77;;;14.80;55.00;;;;;;5049756;28;20048;-46
2023/04/19 02:44:04;;;;;;;15.45;13.07;;;14.80;55.00;;;;;;5042757;28;20516;-47
2023/04/19 02:46:33;;;;;;;15.27;12.68;;;14.80;55.10;;;;;;5025576;28;20040;-45
2023/04/19 02:49:04;;;;;;;14.98;12.10;;;14.80;55.10;;;;;;5031913;28;20501;-48
2023/04/19 02:51:33;;;;;;;14.48;12.50;;;14.80;55.50;;;;;;5032168;28;20708;-46
2023/04/19 02:54:04;;;;;;;15.75;12.35;;;14.80;55.30;;;;;;5020247;28;20045;-46
2023/04/19 02:56:31;;;;;;;14.88;11.82;;;14.80;55.30;;;;;;5032395;28;20466;-47
2023/04/19 02:59:02;;;;;;;14.15;11.90;;;14.80;55.50;;;;;;5032160;28;20084;-48
2023/04/19 03:01:32;;;;;;;12.93;11.55;;;14.80;55.90;;;;;;5029702;28;20079;-48
2023/04/19 03:04:03;;;;;;;13.82;11.93;;;14.80;55.80;;;;;;5025343;28;20049;-48
2023/04/19 03:06:31;;;;;;;13.13;11.02;;;14.80;55.80;;;;;;5031919;28;20045;-45
2023/04/19 03:09:00;;;;;;;13.23;10.77;;;14.80;56.00;;;;;;5031685;28;20811;-45
2023/04/19 03:11:27;;;;;;;13.13;11.23;;;14.80;56.30;;;;;;5032371;28;20048;-46
2023/04/19 03:13:54;;;;;;;12.70;11.23;;;14.80;56.10;;;;;;5024695;28;20052;-46
2023/04/19 03:16:20;;;;;;;13.95;11.93;;;14.80;56.10;;;;;;5031427;28;20098;-45
2023/04/19 03:18:48;;;;;;;12.57;11.23;;;14.80;56.20;;;;;;5030132;28;20049;-45
2023/04/19 03:21:21;;;;;;;13.32;11.43;;;14.80;56.20;;;;;;5020486;28;20408;-46
2023/04/19 03:23:54;;;;;;;12.70;11.40;;;14.80;56.10;;;;;;5027678;28;20052;-46
2023/04/19 03:26:24;;;;;;;12.18;10.88;;;14.80;56.10;;;;;;5031816;28;20044;-48
2023/04/19 03:28:55;;;;;;;12.82;10.75;;;14.90;56.20;;;;;;5023213;28;20142;-47
2023/04/19 03:31:36;;;;;;;14.02;11.52;;;14.90;56.00;;;;;;5038922;28;20038;-46
2023/04/19 03:34:03;;;;;;;13.45;11.55;;;14.90;56.00;;;;;;5012512;28;20042;-44
2023/04/19 03:36:39;;;;;;;13.30;10.95;;;14.90;56.00;;;;;;5034905;28;20041;-45
2023/04/19 03:39:13;;;;;;;12.55;10.50;;;14.90;56.00;;;;;;5032032;28;20056;-45
2023/04/19 03:41:44;;;;;;;;;;;14.90;55.80;;;;;;5030925;28;20059;-47
2023/04/19 03:44:33;;;;;;;11.80;10.07;;;15.10;55.60;;;;;;5025588;28;19925;-46
2023/04/19 03:47:03;;;;;;;15.35;10.90;;;15.00;55.50;;;;;;5031848;28;20056;-46
2023/04/19 03:49:36;;;;;;;12.13;10.10;;;15.00;55.50;;;;;;5031461;28;20048;-45
2023/04/19 03:52:04;;;;;;;12.73;11.43;;;15.00;55.50;;;;;;5042660;28;20049;-45
2023/04/19 03:54:35;;;;;;;14.52;11.02;;;15.00;55.60;;;;;;5030822;28;20029;-46
2023/04/19 03:57:05;;;;;;;;;;;15.00;55.90;;;;;;5030527;28;20056;-45
2023/04/19 03:59:38;;;;;;;13.02;10.15;;;15.10;55.90;;;;;;5046142;28;19931;-47
2023/04/19 04:02:06;;;;;;;14.32;11.57;;;15.10;55.10;;;;;;5026166;28;20045;-45
2023/04/19 04:04:33;;;;;;;13.82;12.43;;;15.00;55.40;;;;;;5023314;28;20041;-45
2023/04/19 04:07:01;;;;;;;15.20;11.90;;;15.00;55.50;;;;;;5053595;28;20045;-46
2023/04/19 04:09:28;;;;;;;14.23;11.43;;;15.00;55.70;;;;;;5030713;28;20142;-48
2023/04/19 04:11:54;;;;;;;14.63;11.48;;;15.00;55.80;;;;;;5037586;28;20501;-45
2023/04/19 04:14:21;;;;;;;16.75;12.10;;;15.00;56.50;;;;;;5030863;28;20083;-45
2023/04/19 04:16:53;;;;;;;15.40;13.23;;;15.00;55.80;;;;;;5022917;28;20041;-46
2023/04/19 04:19:20;;;;;;;15.20;13.00;;;14.90;55.90;;;;;;5031033;28;20067;-46
2023/04/19 04:21:48;;;;;;;14.70;11.57;;;14.90;55.70;;;;;;5023875;28;20598;-46
2023/04/19 04:24:19;;;;;;;12.55;11.20;;;14.90;55.50;;;;;;5042142;28;20029;-46
2023/04/19 04:26:59;;;;;;;13.75;11.43;;;14.90;55.60;;;;;;5031183;28;20071;-45
2023/04/19 04:29:31;;;;;;;17.05;11.88;;;14.90;55.50;;;;;;5037830;28;20443;-47
2023/04/19 04:32:16;;;;;;;12.63;10.82;;;14.90;55.60;;;;;;5031568;28;20061;-46
2023/04/19 04:34:43;;;;;;;13.77;11.00;;;14.90;56.00;;;;;;5035397;28;20076;-46
2023/04/19 04:37:17;;;;;;;13.80;11.52;;;14.90;55.50;;;;;;5030029;28;20406;-45
2023/04/19 04:39:45;;;;;;;12.95;10.20;;;14.80;55.50;;;;;;5011291;28;20109;-47
2023/04/19 04:42:12;;;;;;;14.27;11.52;;;14.80;55.50;;;;;;5039933;28;20037;-45
2023/04/19 04:44:41;;;;;;;13.95;10.15;;;14.80;55.50;;;;;;5032558;28;20041;-46
2023/04/19 04:47:12;;;;;;;13.57;10.85;;;14.80;55.50;;;;;;5027997;28;20045;-48
2023/04/19 04:49:46;;;;;;;12.52;10.52;;;14.80;55.70;;;;;;5030602;28;20048;-46
2023/04/19 04:52:13;;;;;;;12.45;10.23;;;14.80;55.60;;;;;;5041218;28;20556;-48
2023/04/19 04:54:54;;;;;;;13.73;11.30;;;14.80;55.60;;;;;;5034659;28;20102;-46
2023/04/19 04:57:26;;;;;;;16.00;11.77;;;15.00;55.70;;;;;;5030547;28;20386;-46
2023/04/19 04:59:58;;;;;;;13.40;10.32;;;14.80;55.50;;;;;;5034575;28;20045;-46
2023/04/19 05:02:32;;;;;;;13.20;10.25;;;14.80;55.60;;;;;;5035932;28;20522;-48
2023/04/19 05:04:59;;;;;;;12.88;10.20;;;14.70;55.60;;;;;;5026276;28;20102;-46
2023/04/19 05:07:26;;;;;;;12.27;10.27;;;14.70;55.70;;;;;;5052473;28;20098;-47
2023/04/19 05:09:53;;;;;;;14.27;10.85;;;14.80;55.80;;;;;;5034374;28;20073;-46
2023/04/19 05:12:23;;;;;;;12.80;11.40;;;14.70;55.80;;;;;;5033196;28;20136;-45
2023/04/19 05:14:50;;;;;;;14.07;10.88;;;14.70;55.70;;;;;;5035415;28;20068;-47
2023/04/19 05:17:17;;;;;;;10.32;9.23;;;14.80;55.80;;;;;;5033557;28;20055;-45
2023/04/19 05:19:45;;;;;;;13.10;9.98;;;14.80;55.90;;;;;;5034489;28;20053;-50
2023/04/19 05:22:11;;;;;;;13.52;10.68;;;14.80;55.90;;;;;;5046543;28;20124;-46
2023/04/19 05:24:38;;;;;;;12.05;10.60;;;14.80;55.80;;;;;;5040199;28;20060;-49
2023/04/19 05:27:08;;;;;;;12.13;9.65;;;14.80;55.80;;;;;;5026077;28;20045;-43
2023/04/19 05:29:35;;;;;;;14.60;8.57;;;14.80;55.80;;;;;;5031977;28;20512;-46
2023/04/19 05:32:06;;;;;;;11.13;8.73;;;14.80;55.70;;;;;;5035036;28;20065;-47
2023/04/19 05:34:40;;;;;;;11.75;9.10;;;14.80;55.70;;;;;;5026349;28;20523;-45
2023/04/19 05:37:10;;;;;;;10.45;9.35;;;14.80;55.90;;;;;;5034683;28;20554;-46
2023/04/19 05:39:40;;;;;;;10.88;8.77;;;14.80;55.90;;;;;;5034088;28;20058;-49
2023/04/19 05:42:10;;;;;;;12.23;7.75;;;14.80;55.70;;;;;;5050642;28;20120;-47
2023/04/19 05:44:36;;;;;;;9.35;7.55;;;14.80;55.70;;;;;;5049879;28;20067;-48
2023/04/19 05:47:07;;;;;;;8.60;7.63;;;14.80;55.70;;;;;;5033864;28;20441;-45
2023/04/19 05:49:59;;;;;;;9.20;7.13;;;14.80;55.70;;;;;;5032754;28;20077;-45
2023/04/19 05:52:33;;;;;;;7.32;6.15;;;14.90;55.50;;;;;;5040124;28;20076;-48
2023/04/19 05:55:01;;;;;;;8.90;6.75;;;14.90;55.30;;;;;;5025216;28;20041;-48
2023/04/19 05:57:28;;;;;;;8.63;6.68;;;14.90;55.30;;;;;;5048942;28;20410;-49
2023/04/19 05:59:57;;;;;;;7.85;6.63;;;14.90;54.80;;;;;;5033796;28;20052;-45
2023/04/19 06:02:39;;;;;;;7.47;6.05;;;14.90;54.70;;;;;;5045180;28;20108;-46
2023/04/19 06:05:11;;;;;;;8.32;5.22;;;14.90;54.30;;;;;;5028223;28;20528;-45
2023/04/19 06:07:38;;;;;;;7.28;6.15;;;15.00;54.20;;;;;;5034749;28;20047;-46
2023/04/19 06:10:16;;;;;;;6.40;5.68;;;15.00;54.10;;;;;;5033142;28;20056;-46
2023/04/19 06:12:45;;;;;;;6.20;5.53;;;15.00;53.90;;;;;;5044587;28;20040;-46
2023/04/19 06:15:12;;;;;;;7.55;5.50;;;15.00;53.80;;;;;;5032007;28;20033;-49
2023/04/19 06:17:39;;;;;;;6.90;5.50;;;15.00;53.50;;;;;;5039943;28;20037;-48
2023/04/19 06:20:07;;;;;;;6.60;5.57;;;15.10;53.30;;;;;;5043668;28;20053;-48
2023/04/19 06:22:34;;;;;;;7.88;6.28;;;15.10;53.00;;;;;;5048094;28;20091;-48
2023/04/19 06:25:00;;;;;;;7.68;6.03;;;15.10;52.80;;;;;;5047545;28;20036;-45
2023/04/19 06:27:27;;;;;;;10.07;6.25;;;15.00;52.50;;;;;;5048976;28;20648;-46
2023/04/19 06:29:54;;;;;;;8.13;6.20;;;15.10;52.30;;;;;;5044321;28;20047;-48
2023/04/19 06:32:21;;;;;;;8.05;5.88;;;15.00;52.00;;;;;;5047408;28;20107;-47
2023/04/19 06:34:47;;;;;;;8.15;6.15;;;15.00;52.00;;;;;;5042768;28;20120;-49
2023/04/19 06:37:14;;;;;;;7.50;6.35;;;15.00;51.90;;;;;;5051430;28;20064;-47
2023/04/19 06:39:40;;;;;;;9.73;5.93;;;14.90;51.70;;;;;;5050964;28;20045;-48
2023/04/19 06:42:07;;;;;;;7.03;5.65;;;14.90;51.60;;;;;;5051036;28;20076;-46
2023/04/19 06:44:36;;;;;;;7.32;6.20;;;14.90;51.60;;;;;;5044961;28;20047;-48
2023/04/19 06:47:03;;;;;;;8.55;6.63;;;14.90;51.50;;;;;;5051106;28;20500;-48
2023/04/19 06:49:30;;;;;;;8.50;5.80;;;14.90;51.20;;;;;;5051032;28;20106;-46
2023/04/19 06:51:58;;;;;;;7.32;6.13;;;14.90;51.20;;;;;;5046151;28;20094;-46
2023/04/19 06:54:27;;;;;;;8.05;5.70;;;14.90;51.10;;;;;;5050296;28;20037;-45
2023/04/19 06:56:55;;;;;;;8.00;6.18;;;14.90;51.10;;;;;;5050203;28;20412;-48
2023/04/19 06:59:27;;;;;;;7.20;6.10;;;14.90;51.10;;;;;;5048407;28;20033;-49
2023/04/19 07:01:53;;;;;;;8.15;6.75;;;14.90;51.10;;;;;;5048941;28;20037;-48
2023/04/19 07:04:20;;;;;;;7.93;6.10;;;14.90;51.20;;;;;;5046098;28;20048;-46
2023/04/19 07:06:48;;;;;;;6.22;5.53;;;14.90;51.10;;;;;;5050904;28;20059;-47
2023/04/19 07:09:15;;;;;;;8.00;5.72;;;14.90;51.10;;;;;;5050677;28;20059;-50
2023/04/19 07:11:46;;;;;;;6.25;5.65;;;14.90;51.10;;;;;;5047292;28;20072;-45
2023/04/19 07:14:13;;;;;;;7.38;6.53;;;14.90;50.90;;;;;;5046624;28;20460;-48
2023/04/19 07:16:40;;;;;;;8.98;6.47;;;14.90;50.80;;;;;;5043816;28;20489;-44
2023/04/19 07:19:11;;;;;;;7.93;7.10;;;14.80;51.00;;;;;;5050590;28;20095;-47
2023/04/19 07:21:38;;;;;;;7.95;6.85;;;14.90;51.00;;;;;;5047899;28;20052;-46
2023/04/19 07:24:05;;;;;;;8.65;7.63;;;14.80;50.90;;;;;;5043806;28;20401;-46
2023/04/19 07:26:35;;;;;;;8.68;6.85;;;14.80;50.90;;;;;;5050236;28;20393;-49
2023/04/19 07:29:02;;;;;;;8.85;6.63;;;14.70;51.00;;;;;;5044068;28;20037;-45
2023/04/19 07:31:28;;;;;;;7.32;6.53;;;14.80;51.00;;;;;;5049539;28;20041;-45
2023/04/19 07:33:55;;;;;;;7.85;6.97;;;14.70;50.80;;;;;;5044705;28;20043;-45
2023/04/19 07:36:22;;;;;;;7.50;6.35;;;14.70;51.40;;;;;;5049003;28;20061;-45
2023/04/19 07:38:48;;;;;;;7.90;6.57;;;14.70;50.60;;;;;;5049630;28;20033;-48
2023/04/19 07:41:15;;;;;;;8.60;6.57;;;14.70;50.60;;;;;;5041057;28;20520;-47
2023/04/19 07:43:42;;;;;;;10.48;6.95;;;14.70;50.40;;;;;;5047118;28;20618;-46
2023/04/19 07:46:18;;;;;;;8.30;7.50;;;14.70;50.30;;;;;;5047677;28;20067;-45
2023/04/19 07:48:45;;;;;;;9.30;6.32;;;14.70;50.10;;;;;;5044536;28;20044;-46
2023/04/19 07:51:15;;;;;;;8.02;6.40;;;14.70;50.00;;;;;;5046020;28;20116;-49
2023/04/19 07:53:42;;;;;;;7.53;6.47;;;14.70;49.80;;;;;;5046998;28;20041;-46
2023/04/19 07:56:10;;;;;;;8.23;6.22;;;14.70;49.50;;;;;;5049336;28;20049;-48
2023/04/19 07:58:41;;;;;;;6.88;5.78;;;14.70;49.40;;;;;;5050575;28;20048;-47
2023/04/19 08:01:12;;;;;;;10.40;6.43;;;14.70;49.20;;;;;;5047000;28;20569;-47
2023/04/19 08:03:38;;;;;;;7.03;6.32;;;14.70;49.10;;;;;;5043968;28;20045;-49
2023/04/19 08:06:08;;;;;;;8.40;6.00;;;14.70;48.90;;;;;;5047273;28;20040;-48
2023/04/19 08:08:36;;;;;;;9.57;6.00;;;14.80;48.70;;;;;;5050354;28;20052;-49
2023/04/19 08:11:03;;;;;;;7.28;5.22;;;14.80;48.50;;;;;;5041026;28;20041;-48
2023/04/19 08:13:30;;;;;;;10.68;5.47;;;14.80;48.50;;;;;;5037590;28;20037;-49
2023/04/19 08:15:57;;;;;;;7.00;5.53;;;14.80;48.40;;;;;;5049237;28;20041;-49
2023/04/19 08:18:26;;;;;;;7.97;5.45;;;14.80;48.50;;;;;;5042133;28;20467;-49
2023/04/19 08:20:53;;;;;;;7.03;5.28;;;14.80;47.90;;;;;;5030852;28;20469;-50
2023/04/19 08:23:20;;;;;;;6.07;5.47;;;14.80;47.80;;;;;;5043316;28;20075;-49
2023/04/19 08:25:55;;;;;;;7.60;6.10;;;14.80;47.80;;;;;;5045496;28;20567;-49
2023/04/19 08:28:24;;;;;;;7.50;5.35;;;14.80;47.60;;;;;;5052523;28;20040;-50
2023/04/19 08:30:51;;;;;;;6.88;5.65;;;14.90;47.30;;;;;;5051650;28;20531;-49
2023/04/19 08:33:21;;;;;;;5.80;5.03;;;14.90;47.20;;;;;;5047721;28;20035;-49
2023/04/19 08:35:49;;;;;;;7.05;5.20;;;14.90;47.20;;;;;;5040562;28;20041;-45
2023/04/19 08:38:15;;;;;;;6.90;4.88;;;14.90;47.30;;;;;;5052880;28;20045;-45
2023/04/19 08:40:48;;;;;;;8.68;5.32;;;15.00;47.10;;;;;;5051265;28;20041;-48
2023/04/19 08:43:16;;;;;;;10.30;6.10;;;15.00;46.90;;;;;;5052381;28;20048;-45
2023/04/19 08:45:46;;;;;;;6.90;5.32;;;15.00;47.00;;;;;;5052958;28;20048;-46
2023/04/19 08:48:14;;;;;;;6.05;5.45;;;15.10;47.00;;;;;;5053654;28;20040;-47
2023/04/19 08:50:47;;;;;;;8.35;4.93;;;15.10;46.70;;;;;;5049984;28;20057;-45
2023/04/19 08:53:34;;;;;;;5.88;4.57;;;15.10;46.50;;;;;;5047883;28;20040;-47
2023/04/19 08:56:02;;;;;;;7.63;5.30;;;15.20;46.60;;;;;;5052725;28;20045;-44
2023/04/19 08:58:49;;;;;;;5.80;4.82;;;15.20;46.60;;;;;;5052595;28;20432;-48
2023/04/19 09:01:36;;;;;;;7.88;4.70;;;15.20;46.40;;;;;;5050470;28;20033;-49
2023/04/19 09:04:06;;;;;;;8.13;5.82;;;15.30;46.30;;;;;;5047302;28;20095;-48
2023/04/19 09:06:54;;;;;;;6.68;5.50;;;15.30;46.30;;;;;;5048131;28;20033;-45
2023/04/19 09:09:23;;;;;;;21.35;6.40;;;15.30;45.70;;;;;;5052052;28;20580;-47
2023/04/19 09:11:56;;;;;;;6.63;4.80;;;15.40;45.70;;;;;;5034955;28;20432;-45
2023/04/19 09:14:25;;;;;;;6.32;4.53;;;15.40;45.60;;;;;;5047022;28;20125;-47
2023/04/19 09:17:10;;;;;;;7.53;4.70;;;15.40;45.40;;;;;;5052447;28;20411;-48
2023/04/19 09:19:49;;;;;;;5.68;4.70;;;15.40;45.20;;;;;;5052370;28;20106;-48
2023/04/19 09:22:19;;;;;;;7.47;5.35;;;15.50;44.80;;;;;;5049700;28;20505;-49
2023/04/19 09:24:50;;;;;;;8.13;4.97;;;15.50;45.30;;;;;;5045868;28;20051;-49
2023/04/19 09:27:38;;;;;;;6.75;4.53;;;15.60;45.30;;;;;;5037826;28;20056;-44
2023/04/19 09:30:08;;;;;;;4.68;4.13;;;15.60;45.10;;;;;;5045439;28;20044;-46
2023/04/19 09:32:49;;;;;;;6.72;4.43;;;15.70;44.60;;;;;;5045354;28;20055;-45
2023/04/19 09:35:16;;;;;;;5.50;4.35;;;15.70;44.50;;;;;;5045677;28;20463;-45
2023/04/19 09:38:05;;;;;;;4.50;3.75;;;15.70;43.90;;;;;;5051460;28;20048;-47
2023/04/19 09:40:33;;;;;;;5.50;3.63;;;15.80;43.20;;;;;;5051100;28;20068;-47
2023/04/19 09:43:03;;;;;;;5.57;3.65;;;15.80;43.30;;;;;;5049454;28;20071;-46
2023/04/19 09:45:50;;;;;;;5.70;3.28;;;15.80;43.50;;;;;;5046190;28;20087;-46
2023/04/19 09:48:22;;;;;;;5.53;3.42;;;15.80;43.30;;;;;;5043469;28;20045;-48
2023/04/19 09:50:59;;;;;;;6.07;3.67;;;15.90;43.30;;;;;;5045362;28;20055;-46
2023/04/19 09:53:35;;;;;;;6.15;3.78;;;15.90;43.10;;;;;;5048520;28;20427;-50
2023/04/19 09:56:04;;;;;;;5.07;3.50;;;16.00;43.50;;;;;;5039903;28;20041;-45
2023/04/19 09:58:31;;;;;;;4.85;3.53;;;16.00;42.80;;;;;;5051276;28;20044;-47
2023/04/19 10:01:03;;;;;;;9.15;4.28;;;16.00;42.70;;;;;;5044745;28;20404;-48
2023/04/19 10:03:36;;;;;;;3.88;2.97;;;16.00;42.90;;;;;;5041537;28;20060;-50
2023/04/19 10:06:11;;;;;;;5.40;3.92;;;16.00;42.50;;;;;;5048330;28;20440;-52
2023/04/19 10:09:01;;;;;;;4.93;3.65;;;16.00;42.30;;;;;;5051386;28;20048;-49
2023/04/19 10:11:37;;;;;;;6.10;3.70;;;16.10;42.00;;;;;;5051039;28;20047;-47
2023/04/19 10:14:10;;;;;;;3.92;2.97;;;16.10;41.70;;;;;;5050202;28;20041;-48
2023/04/19 10:16:38;;;;;;;5.47;3.00;;;16.00;41.20;;;;;;5043789;28;20075;-49
2023/04/19 10:19:10;;;;;;;4.70;3.47;;;16.00;41.60;;;;;;5050207;28;20286;-49
2023/04/19 10:21:41;;;;;;;7.28;3.35;;;16.00;41.60;;;;;;5046969;28;20091;-50
2023/04/19 10:24:11;;;;;;;5.50;3.33;;;16.10;41.60;;;;;;5045014;28;20402;-50
2023/04/19 10:27:01;;;;;;;6.28;3.35;;;16.00;41.10;;;;;;5051004;28;20055;-50
2023/04/19 10:29:50;;;;;;;4.03;2.90;;;16.10;40.70;;;;;;5036176;28;20385;-49
2023/04/19 10:32:17;;;;;;;2.92;2.63;;;16.10;40.60;;;;;;5052113;28;20041;-46
2023/04/19 10:34:45;;;;;;;3.05;2.70;;;16.10;40.40;;;;;;5043959;28;20041;-46
2023/04/19 10:37:22;;;;;;;5.75;3.13;;;16.10;40.30;;;;;;5042904;28;20041;-45
2023/04/19 10:39:50;;;;;;;7.57;3.38;;;16.10;39.90;;;;;;5045075;28;20065;-46
2023/04/19 10:42:20;;;;;;;6.07;3.08;;;16.20;39.90;;;;;;5043209;28;20573;-46
2023/04/19 10:45:25;;;;;;;3.67;2.65;;;16.20;39.60;;;;;;5046158;28;20117;-46
2023/04/19 10:47:51;;;;;;;4.10;2.30;;;16.20;39.60;;;;;;5045188;28;20067;-47
2023/04/19 10:50:25;;;;;;;5.50;2.85;;;16.30;39.50;;;;;;5049517;28;20064;-44
2023/04/19 10:52:56;;;;;;;3.25;2.95;;;16.30;38.90;;;;;;5042282;28;20041;-46
2023/04/19 10:55:24;;;;;;;3.63;2.80;;;16.30;39.40;;;;;;5050434;28;20045;-45
2023/04/19 10:58:06;;;;;;;6.38;2.47;;;16.40;39.10;;;;;;5050529;28;20045;-48
2023/04/19 11:00:35;;;;;;;4.07;2.53;;;16.40;39.20;;;;;;5045002;28;20546;-47
2023/04/19 11:03:41;;;;;;;4.90;2.25;;;16.50;39.30;;;;;;5050150;28;20037;-48
2023/04/19 11:06:25;;;;;;;2.47;1.90;;;16.50;38.60;;;;;;5048796;28;20064;-47
2023/04/19 11:08:55;;;;;;;2.95;2.10;;;16.60;38.30;;;;;;5044581;28;20045;-45
2023/04/19 11:11:25;;;;;;;2.28;2.08;;;16.70;37.80;;;;;;5048338;28;20060;-49
2023/04/19 11:14:01;;;;;;;2.15;2.05;;;16.70;37.80;;;;;;5042515;28;20041;-49
2023/04/19 11:16:27;;;;;;;1.98;1.63;;;16.80;37.30;;;;;;5050495;28;20048;-48
2023/04/19 11:19:32;;;;;;;4.05;1.65;;;16.80;37.20;;;;;;5050753;28;20041;-47
2023/04/19 11:22:03;;;;;;;6.00;2.90;;;16.80;36.90;;;;;;5045502;28;20045;-45
2023/04/19 11:24:34;;;;;;;;;;;16.90;36.80;;;;;;5042353;28;20040;-49
2023/04/19 11:27:07;;;;;;;3.58;2.15;;;17.00;38.60;;;;;;5050554;28;20008;-45
2023/04/19 11:29:36;;;;;;;3.33;1.95;;;17.00;36.90;;;;;;5047045;28;20117;-47
2023/04/19 11:32:03;;;;;;;3.75;1.85;;;17.00;37.50;;;;;;5042604;28;20037;-46
2023/04/19 11:34:36;;;;;;;3.53;2.25;;;17.00;37.10;;;;;;5045697;28;20040;-46
2023/04/19 11:37:03;;;;;;;4.45;2.17;;;17.10;37.20;;;;;;5050357;28;20124;-45
2023/04/19 11:39:31;;;;;;;2.78;2.00;;;17.10;36.60;;;;;;5049691;28;20051;-45
2023/04/19 11:42:01;;;;;;;3.50;2.33;;;17.10;36.80;;;;;;5050293;28;20041;-49
2023/04/19 11:44:29;;;;;;;2.72;2.10;;;17.20;36.30;;;;;;5047013;28;20064;-46
2023/04/19 11:47:01;;;;;;;4.28;2.55;;;17.20;35.90;;;;;;5050225;28;20447;-46
2023/04/19 11:49:30;;;;;;;2.53;2.33;;;17.20;35.50;;;;;;5041731;28;20067;-46
2023/04/19 11:52:04;;;;;;;5.63;2.85;;;17.30;35.80;;;;;;5043790;28;20036;-46
2023/04/19 11:54:34;;;;;;;2.95;2.13;;;17.30;35.90;;;;;;5048210;28;20058;-48
2023/04/19 11:57:06;;;;;;;2.50;2.08;;;17.30;35.80;;;;;;5043489;28;20044;-48
2023/04/19 11:59:35;;;;;;;5.90;2.40;;;17.30;35.50;;;;;;5031439;28;20477;-46
2023/04/19 12:02:06;;;;;;;3.20;2.42;;;17.30;35.40;;;;;;5043578;28;20041;-46
2023/04/19 12:04:37;;;;;;;3.53;2.75;;;17.40;35.30;;;;;;5043601;28;20404;-49
2023/04/19 12:07:05;;;;;;;3.53;3.22;;;17.40;35.10;;;;;;5043143;28;20045;-49
2023/04/19 12:09:38;;;;;;;4.10;2.58;;;17.50;35.30;;;;;;5048820;28;20045;-47
2023/04/19 12:12:06;;;;;;;5.38;2.85;;;17.50;35.00;;;;;;5047646;28;20516;-45
2023/04/19 12:14:38;;;;;;;4.68;2.47;;;17.50;35.00;;;;;;5049395;28;20499;-45
2023/04/19 12:17:14;;;;;;;3.60;2.72;;;17.50;35.10;;;;;;5049836;28;20044;-47
2023/04/19 12:19:48;;;;;;;5.80;2.45;;;17.50;34.20;;;;;;5027410;28;20037;-50
2023/04/19 12:22:23;;;;;;;5.20;3.22;;;17.50;34.90;;;;;;5045772;28;20576;-47
2023/04/19 12:24:52;;;;;;;3.75;2.72;;;17.50;34.90;;;;;;5039452;28;20045;-48
2023/04/19 12:27:20;;;;;;;3.60;2.75;;;17.60;34.60;;;;;;5043278;28;20060;-47
2023/04/19 12:29:51;;;;;;;2.53;2.10;;;17.60;34.50;;;;;;5048870;28;20037;-49
2023/04/19 12:32:18;;;;;;;3.65;2.60;;;17.60;34.30;;;;;;5049597;28;20562;-46
2023/04/19 12:34:45;;;;;;;2.50;2.28;;;17.60;34.60;;;;;;5043562;28;20099;-46
2023/04/19 12:37:11;;;;;;;2.45;2.25;;;17.60;34.60;;;;;;5048812;28;20037;-46
2023/04/19 12:39:38;;;;;;;5.20;2.58;;;17.60;35.10;;;;;;5048340;28;20512;-46
2023/04/19 12:42:05;;;;;;;3.90;2.55;;;17.70;35.10;;;;;;5048233;28;20508;-47
2023/04/19 12:44:36;;;;;;;3.53;3.00;;;17.70;34.50;;;;;;5041235;28;20126;-44
2023/04/19 12:47:12;;;;;;;2.67;2.45;;;17.80;33.90;;;;;;5049454;28;20057;-45
2023/04/19 12:49:41;;;;;;;5.18;2.70;;;17.90;33.90;;;;;;5049084;28;20037;-48
2023/04/19 12:52:12;;;;;;;3.10;2.80;;;17.90;34.00;;;;;;5044593;28;20090;-47
2023/04/19 12:54:38;;;;;;;4.20;2.60;;;18.00;34.10;;;;;;5047890;28;20040;-47